Time;durP1;ratioP1;P1;durP2;ratioP2;P2;SDS_P1;SDS_P2;PMS_P1;PMS_P2;Temp;Humidity;BMP_temperature;BMP_pressure;BME280_temperature;BME280_humidity;BME280_pressure;Samples;Min_cycle;Max_cycle;Signal;HPM_P1;HPM_P2
2023/06/21 00:00:47;;;;;;;;;24.33;23.33;;;;;20.72;81.50;101125.78;5047576;28;9244;-68
2023/06/21 00:03:13;;;;;;;;;27.67;27.00;;;;;20.69;81.26;101124.38;5067444;28;9226;-68
2023/06/21 00:05:40;;;;;;;;;28.67;24.67;;;;;20.68;81.48;101130.94;5040209;28;9339;-68
2023/06/21 00:08:07;;;;;;;;;32.00;29.00;;;;;20.66;81.23;101127.63;5046114;28;9776;-68
2023/06/21 00:10:33;;;;;;;;;20.33;20.33;;;;;20.66;81.69;101135.00;5042657;28;9318;-68
2023/06/21 00:13:00;;;;;;;;;22.33;20.33;;;;;20.68;81.76;101146.53;5034269;28;9086;-68
2023/06/21 00:15:27;;;;;;;;;25.67;25.00;;;;;20.68;81.61;101157.47;5051697;28;9129;-67
2023/06/21 00:17:53;;;;;;;;;24.33;19.33;;;;;20.66;81.79;101145.94;5039173;28;9153;-68
2023/06/21 00:20:20;;;;;;;;;27.00;23.67;;;;;20.69;81.66;101143.53;5046201;28;9193;-68
2023/06/21 00:22:47;;;;;;;;;24.67;24.00;;;;;20.71;81.70;101141.38;5049123;28;8983;-68
2023/06/21 00:25:14;;;;;;;;;36.00;31.75;;;;;20.70;81.33;101145.19;5038319;28;9165;-67
2023/06/21 00:27:44;;;;;;;;;37.00;33.00;;;;;20.67;81.43;101131.19;5051585;28;9623;-68
2023/06/21 00:30:11;;;;;;;;;51.25;42.00;;;;;20.59;81.65;101135.19;5046978;28;9543;-68
2023/06/21 00:32:38;;;;;;;;;42.00;37.25;;;;;20.55;81.88;101128.56;5033940;28;9931;-67
2023/06/21 00:35:06;;;;;;;;;31.25;28.00;;;;;20.54;82.20;101143.34;5044726;28;9808;-68
2023/06/21 00:37:33;;;;;;;;;28.33;24.00;;;;;20.55;82.73;101153.19;5041735;28;9472;-67
2023/06/21 00:40:00;;;;;;;;;27.67;26.67;;;;;20.56;82.33;101148.53;5051727;28;9411;-68
2023/06/21 00:42:27;;;;;;;;;40.00;36.50;;;;;20.57;82.41;101155.66;5034667;28;9490;-68
2023/06/21 00:44:53;;;;;;;;;29.00;29.00;;;;;20.57;82.44;101151.03;5046616;28;9555;-68
2023/06/21 00:47:20;;;;;;;;;41.25;35.50;;;;;20.57;82.32;101166.59;5042255;28;10175;-68
2023/06/21 00:49:46;;;;;;;;;41.25;38.25;;;;;20.54;82.34;101167.97;5032533;28;9834;-68
2023/06/21 00:52:13;;;;;;;;;31.33;29.67;;;;;20.57;82.57;101163.88;5037164;28;9828;-67
2023/06/21 00:54:42;;;;;;;;;33.67;28.67;;;;;20.57;82.48;101170.16;5042262;28;9487;-67
2023/06/21 00:57:11;;;;;;;;;30.33;23.33;;;;;20.56;82.67;101182.19;5040070;28;9508;-68
2023/06/21 00:59:38;;;;;;;;;34.25;30.50;;;;;20.56;82.64;101181.38;5063611;28;9380;-67
2023/06/21 01:02:05;;;;;;;;;42.75;36.75;;;;;20.53;82.50;101188.16;5049900;28;9477;-67
2023/06/21 01:04:34;;;;;;;;;33.33;30.33;;;;;20.51;82.77;101189.50;5049591;28;9812;-67
2023/06/21 01:07:27;;;;;;;;;35.50;32.50;;;;;20.51;82.43;101184.03;5040334;28;9380;-67
2023/06/21 01:10:19;;;;;;;;;33.00;31.50;;;;;20.48;82.85;101196.28;5042662;28;9751;-67
2023/06/21 01:13:12;;;;;;;;;36.00;33.50;;;;;20.45;82.89;101199.50;5033687;28;9590;-67
2023/06/21 01:15:50;;;;;;;;;39.00;34.00;;;;;20.43;82.99;101202.50;5039918;28;9737;-67
2023/06/21 01:18:20;;;;;;;;;41.50;38.00;;;;;20.39;82.92;101204.06;5047739;28;9766;-67
2023/06/21 01:20:53;;;;;;;;;37.75;34.75;;;;;20.35;83.21;101213.03;5048842;28;9831;-67
2023/06/21 01:23:51;;;;;;;;;42.50;37.75;;;;;20.31;83.39;101201.75;5050081;28;10663;-68
2023/06/21 01:26:52;;;;;;;;;37.50;35.00;;;;;20.30;83.19;101200.13;5013926;28;9783;-67
2023/06/21 01:29:30;;;;;;;;;49.25;37.50;;;;;20.29;82.89;101209.38;5030815;28;9769;-67
2023/06/21 01:31:59;;;;;;;;;45.00;38.50;;;;;20.22;83.41;101209.56;5030364;28;10122;-68
2023/06/21 01:34:27;;;;;;;;;40.50;36.50;;;;;20.21;83.56;101204.31;5029594;28;9958;-68
2023/06/21 01:36:54;;;;;;;;;52.00;42.25;;;;;20.19;83.50;101212.78;5039855;28;10615;-68
2023/06/21 01:39:20;;;;;;;;;35.50;32.25;;;;;20.21;83.42;101218.81;5033246;28;10099;-67
2023/06/21 01:41:47;;;;;;;;;30.25;28.25;;;;;20.24;83.50;101220.25;5050909;28;10457;-67
2023/06/21 01:44:16;;;;;;;;;36.25;35.00;;;;;20.25;83.33;101225.47;5050706;28;9523;-67
2023/06/21 01:46:44;;;;;;;;;34.50;32.75;;;;;20.25;83.20;101219.16;5049415;28;9719;-67
2023/06/21 01:49:13;;;;;;;;;34.75;31.75;;;;;20.28;83.26;101217.84;5049521;28;9621;-67
2023/06/21 01:51:42;;;;;;;;;31.00;29.75;;;;;20.27;83.08;101219.75;5049487;28;9385;-67
2023/06/21 01:54:09;;;;;;;;;37.00;33.25;;;;;20.27;83.12;101227.13;5049148;28;9462;-67
2023/06/21 01:56:37;;;;;;;;;42.75;37.50;;;;;20.22;83.11;101217.75;5049126;28;9717;-67
2023/06/21 01:59:03;;;;;;;;;33.75;31.75;;;;;20.22;83.01;101215.03;5048880;28;9730;-67
2023/06/21 02:01:32;;;;;;;;;33.00;30.50;;;;;20.21;83.02;101215.25;5049342;28;9489;-68
2023/06/21 02:04:00;;;;;;;;;36.75;31.00;;;;;20.21;83.01;101213.34;5050056;28;9527;-66
2023/06/21 02:06:30;;;;;;;;;30.00;27.00;;;;;20.22;83.18;101212.28;5049283;28;9458;-67
2023/06/21 02:08:59;;;;;;;;;30.50;27.25;;;;;20.22;82.88;101215.03;5049368;28;9371;-66
2023/06/21 02:11:28;;;;;;;;;36.75;31.75;;;;;20.21;82.73;101220.72;5050491;28;9468;-67
2023/06/21 02:13:57;;;;;;;;;39.75;32.75;;;;;20.18;82.62;101216.59;5049086;28;9542;-67
2023/06/21 02:16:25;;;;;;;;;46.00;38.00;;;;;20.16;82.74;101215.19;5048637;28;9659;-67
2023/06/21 02:18:52;;;;;;;;;37.00;35.25;;;;;20.14;82.74;101218.19;5049036;28;9703;-68
2023/06/21 02:21:19;;;;;;;;;42.00;35.00;;;;;20.08;82.70;101210.97;5049838;28;9700;-68
2023/06/21 02:23:46;;;;;;;;;34.50;30.75;;;;;20.07;82.78;101219.41;5051419;28;10345;-67
2023/06/21 02:26:13;;;;;;;;;36.00;30.75;;;;;20.06;83.12;101223.25;5049062;28;9552;-68
2023/06/21 02:28:41;;;;;;;;;32.75;31.25;;;;;20.07;82.89;101228.44;5073046;22;9492;-66
2023/06/21 02:31:07;;;;;;;;;35.50;29.00;;;;;20.06;82.94;101229.53;5037932;28;9720;-65
2023/06/21 02:33:34;;;;;;;;;29.33;27.67;;;;;20.07;82.84;101236.66;5048813;28;9517;-65
2023/06/21 02:36:01;;;;;;;;;35.00;29.67;;;;;20.06;82.92;101237.72;5049725;28;9382;-65
2023/06/21 02:38:27;;;;;;;;;34.33;29.33;;;;;20.05;82.85;101244.25;5053124;28;10153;-65
2023/06/21 02:40:54;;;;;;;;;26.00;23.33;;;;;20.04;82.84;101248.06;5068713;28;9302;-65
2023/06/21 02:43:24;;;;;;;;;24.33;23.00;;;;;20.04;82.85;101255.44;5068767;28;9398;-67
2023/06/21 02:45:50;;;;;;;;;29.67;24.33;;;;;20.01;82.57;101245.81;5068663;28;9300;-65
2023/06/21 02:48:18;;;;;;;;;28.33;27.00;;;;;20.00;82.64;101255.09;5052914;28;9443;-66
2023/06/21 02:50:45;;;;;;;;;28.00;25.33;;;;;19.99;82.40;101259.75;5032121;28;9380;-65
2023/06/21 02:53:11;;;;;;;;;28.25;27.50;;;;;19.96;82.34;101260.22;5049858;28;9379;-65
2023/06/21 02:55:38;;;;;;;;;28.67;26.67;;;;;19.95;82.17;101265.94;5048404;28;9510;-66
2023/06/21 02:58:04;;;;;;;;;27.33;24.67;;;;;19.90;82.12;101269.41;5048423;28;9389;-66
2023/06/21 03:00:31;;;;;;;;;35.25;32.00;;;;;19.87;82.15;101275.38;5048678;28;9386;-66
2023/06/21 03:03:00;;;;;;;;;32.67;27.67;;;;;19.82;81.86;101279.94;5050178;28;9808;-65
2023/06/21 03:05:28;;;;;;;;;27.33;22.67;;;;;19.78;81.81;101274.13;5048615;28;9353;-66
2023/06/21 03:07:56;;;;;;;;;18.00;16.67;;;;;19.78;81.58;101273.28;5048662;28;9419;-65
2023/06/21 03:10:23;;;;;;;;;17.00;16.33;;;;;19.74;81.46;101279.25;5040492;28;10020;-65
2023/06/21 03:12:50;;;;;;;;;19.33;15.67;;;;;19.72;81.13;101280.53;5032469;28;9250;-65
2023/06/21 03:15:20;;;;;;;;;26.33;21.67;;;;;19.67;81.10;101284.00;5056128;28;9157;-64
2023/06/21 03:17:46;;;;;;;;;18.00;15.33;;;;;19.66;80.75;101297.91;5066577;28;9233;-65
2023/06/21 03:20:13;;;;;;;;;15.00;13.33;;;;;19.64;80.73;101292.69;5047666;28;9146;-65
2023/06/21 03:22:44;;;;;;;;;12.50;12.00;;;;;19.63;80.62;101293.75;5045534;28;9150;-65
2023/06/21 03:25:12;;;;;;;;;21.67;14.67;;;;;19.61;80.55;101295.06;5045931;28;9549;-64
2023/06/21 03:27:41;;;;;;;;;17.67;14.00;;;;;19.57;80.48;101305.66;5048355;28;8914;-64
2023/06/21 03:30:12;;;;;;;;;11.00;10.67;;;;;19.54;80.40;101306.13;5062118;28;8893;-64
2023/06/21 03:32:48;;;;;;;;;10.00;10.00;;;;;19.54;80.32;101305.28;5068538;28;9823;-64
2023/06/21 03:35:18;;;;;;;;;11.00;11.00;;;;;19.50;80.05;101307.69;5068175;28;8918;-65
2023/06/21 03:37:47;;;;;;;;;12.00;9.50;;;;;19.49;79.93;101325.97;5068214;28;9059;-64
2023/06/21 03:40:17;;;;;;;;;10.00;8.67;;;;;19.48;79.93;101324.28;5052108;28;8833;-64
2023/06/21 03:42:45;;;;;;;;;10.33;10.33;;;;;19.46;79.67;101333.81;5052190;28;8902;-64
2023/06/21 03:45:12;;;;;;;;;10.00;8.25;;;;;19.44;79.75;101335.94;5028580;28;8925;-65
2023/06/21 03:47:43;;;;;;;;;8.25;8.00;;;;;19.45;79.34;101340.34;5047625;28;8846;-64
2023/06/21 03:50:11;;;;;;;;;10.00;7.00;;;;;19.42;79.29;101346.28;5041209;28;8878;-65
2023/06/21 03:52:40;;;;;;;;;6.67;6.00;;;;;19.37;79.09;101341.53;5029042;28;9037;-64
2023/06/21 03:55:07;;;;;;;;;2.00;2.00;;;;;19.36;78.92;101334.41;5034486;28;8913;-65
2023/06/21 03:57:34;;;;;;;;;7.50;6.50;;;;;19.36;78.86;101342.59;5039583;28;8908;-65
2023/06/21 04:00:01;;;;;;;;;4.50;4.50;;;;;19.38;78.88;101345.09;5032449;28;9852;-65
2023/06/21 04:02:41;;;;;;;;;6.50;6.50;;;;;19.35;78.65;101351.03;5045242;28;8839;-65
2023/06/21 04:05:10;;;;;;;;;4.00;4.00;;;;;19.34;78.42;101357.56;5050720;28;8819;-65
2023/06/21 04:07:40;;;;;;;;;4.75;4.75;;;;;19.36;78.42;101358.97;5051540;28;8855;-65
2023/06/21 04:10:08;;;;;;;;;3.50;3.50;;;;;19.41;78.55;101372.75;5051205;28;8843;-65
2023/06/21 04:12:36;;;;;;;;;4.75;4.00;;;;;19.44;78.25;101363.25;5034874;28;8908;-64
2023/06/21 04:15:04;;;;;;;;;7.75;7.00;;;;;19.42;78.01;101362.66;5036450;28;9528;-64
2023/06/21 04:17:31;;;;;;;;;6.00;6.00;;;;;19.43;77.97;101367.03;5069538;28;8860;-65
2023/06/21 04:19:58;;;;;;;;;3.00;3.00;;;;;19.41;78.23;101363.75;5064090;28;9719;-65
2023/06/21 04:22:25;;;;;;;;;6.00;6.00;;;;;19.39;78.18;101366.69;5050732;28;9563;-64
2023/06/21 04:24:52;;;;;;;;;3.00;3.00;;;;;19.39;78.38;101374.88;5038936;28;9592;-65
2023/06/21 04:27:18;;;;;;;;;4.50;4.50;;;;;19.36;78.22;101374.53;5070242;28;8840;-64
2023/06/21 04:29:48;;;;;;;;;4.50;4.50;;;;;19.35;78.30;101372.88;5064421;28;8994;-66
2023/06/21 04:32:14;;;;;;;;;5.75;4.25;;;;;19.35;78.63;101372.88;5052548;28;8800;-66
2023/06/21 04:34:43;;;;;;;;;4.00;4.00;;;;;19.35;78.75;101372.88;5052206;28;8835;-65
2023/06/21 04:37:10;;;;;;;;;4.00;4.00;;;;;19.34;78.41;101376.69;5051356;28;8859;-66
2023/06/21 04:39:36;;;;;;;;;3.50;3.50;;;;;19.33;78.64;101372.31;5052292;28;8827;-66
2023/06/21 04:42:03;;;;;;;;;5.50;5.50;;;;;19.35;78.75;101364.69;5059742;28;8817;-65
2023/06/21 04:44:30;;;;;;;;;3.25;2.50;;;;;19.39;78.72;101368.59;5071828;28;8906;-66
2023/06/21 04:47:00;;;;;;;;;7.00;6.25;;;;;19.40;78.62;101368.34;5054450;28;8901;-65
2023/06/21 04:49:26;;;;;;;;;4.00;4.00;;;;;19.41;78.57;101375.50;5050407;28;8851;-65
2023/06/21 04:51:58;;;;;;;;;5.25;5.25;;;;;19.43;78.34;101378.78;5032079;28;8853;-65
2023/06/21 04:54:25;;;;;;;;;7.50;4.25;;;;;19.47;78.38;101381.88;5031856;28;8944;-65
2023/06/21 04:56:52;;;;;;;;;4.00;2.00;;;;;19.49;78.22;101393.41;5048152;28;8841;-65
2023/06/21 04:59:18;;;;;;;;;3.00;3.00;;;;;19.49;78.32;101383.31;5045361;28;8832;-67
2023/06/21 05:01:45;;;;;;;;;8.50;7.00;;;;;19.51;78.45;101393.97;5036627;28;8828;-67
2023/06/21 05:04:12;;;;;;;;;4.75;4.75;;;;;19.53;78.52;101394.59;5042700;28;8834;-67
2023/06/21 05:06:40;;;;;;;;;4.67;3.67;;;;;19.50;78.38;101397.78;5043596;28;8843;-67
2023/06/21 05:09:08;;;;;;;;;6.25;6.00;;;;;19.50;78.28;101397.78;5051530;28;8953;-67
2023/06/21 05:11:36;;;;;;;;;3.25;3.25;;;;;19.52;78.32;101404.66;5035111;28;8932;-67
2023/06/21 05:14:03;;;;;;;;;3.75;3.75;;;;;19.54;78.22;101398.97;5041459;28;9658;-67
2023/06/21 05:16:30;;;;;;;;;4.50;3.75;;;;;19.54;78.20;101404.44;5054505;28;8858;-67
2023/06/21 05:18:57;;;;;;;;;4.50;4.50;;;;;19.51;78.09;101411.19;5031711;28;8841;-68
2023/06/21 05:21:23;;;;;;;;;6.75;6.00;;;;;19.49;78.18;101405.16;5033931;28;8861;-67
2023/06/21 05:23:49;;;;;;;;;4.33;4.00;;;;;19.48;78.00;101408.94;5036869;28;8908;-67
2023/06/21 05:26:16;;;;;;;;;5.00;4.75;;;;;19.52;78.19;101414.75;5046126;28;8911;-67
2023/06/21 05:28:42;;;;;;;;;5.50;4.00;;;;;19.54;78.13;101415.34;5042258;28;8814;-68
2023/06/21 05:31:09;;;;;;;;;5.00;3.00;;;;;19.63;78.25;101418.56;5049173;28;8885;-68
2023/06/21 05:33:36;;;;;;;;;6.00;4.00;;;;;19.73;78.21;101416.91;5055110;28;8898;-67
2023/06/21 05:36:02;;;;;;;;;4.00;4.00;;;;;19.86;77.71;101415.78;5070821;28;8813;-67
2023/06/21 05:38:29;;;;;;;;;7.25;7.00;;;;;19.99;77.42;101418.25;5040113;28;8842;-67
2023/06/21 05:40:56;;;;;;;;;5.00;5.00;;;;;20.10;76.62;101404.78;5041584;28;8807;-67
2023/06/21 05:43:22;;;;;;;;;5.50;5.25;;;;;20.15;76.58;101408.44;5068148;28;8851;-67
2023/06/21 05:45:49;;;;;;;;;4.00;4.00;;;;;20.17;76.26;101419.94;5064257;28;8827;-67
2023/06/21 05:48:15;;;;;;;;;6.75;6.00;;;;;20.15;76.24;101405.69;5050774;28;8845;-67
2023/06/21 05:50:42;;;;;;;;;6.00;6.00;;;;;20.16;75.96;101412.81;5050890;28;8854;-67
2023/06/21 05:53:09;;;;;;;;;7.50;6.75;;;;;20.16;75.95;101412.81;5050742;28;8909;-67
2023/06/21 05:55:35;;;;;;;;;5.25;5.25;;;;;20.14;75.83;101430.56;5050744;28;8811;-66
2023/06/21 05:58:02;;;;;;;;;4.00;4.00;;;;;20.12;75.80;101427.22;5055672;28;8914;-65
2023/06/21 06:00:30;;;;;;;;;9.00;7.00;;;;;20.09;76.06;101431.25;5070657;28;8813;-67
2023/06/21 06:02:57;;;;;;;;;6.50;6.50;;;;;20.06;76.02;101436.41;5070516;28;8832;-66
2023/06/21 06:05:23;;;;;;;;;6.50;6.50;;;;;20.02;76.13;101438.78;5069158;28;8894;-66
2023/06/21 06:07:50;;;;;;;;;4.50;4.50;;;;;20.07;76.25;101451.72;5070966;28;8860;-66
2023/06/21 06:10:17;;;;;;;;;7.00;4.00;;;;;20.10;76.02;101452.06;5070446;28;8836;-69
2023/06/21 06:12:43;;;;;;;;;6.00;5.75;;;;;20.13;76.03;101448.00;5070725;28;8881;-66
2023/06/21 06:15:10;;;;;;;;;6.75;6.00;;;;;20.13;76.11;101451.56;5069690;28;8809;-66
2023/06/21 06:17:36;;;;;;;;;8.75;8.75;;;;;20.13;76.08;101461.69;5070297;28;8914;-67
2023/06/21 06:20:06;;;;;;;;;7.00;7.00;;;;;20.08;76.05;101464.31;5066658;28;8862;-66
2023/06/21 06:22:34;;;;;;;;;6.00;6.00;;;;;19.99;75.79;101472.06;5040119;28;8923;-66
2023/06/21 06:25:01;;;;;;;;;7.25;6.50;;;;;20.02;75.89;101474.31;5037409;28;8878;-66
2023/06/21 06:27:28;;;;;;;;;5.25;5.25;;;;;20.05;75.97;101482.03;5048871;28;8855;-66
2023/06/21 06:29:55;;;;;;;;;4.00;4.00;;;;;20.06;75.91;101482.88;5043443;28;8846;-67
2023/06/21 06:32:22;;;;;;;;;6.25;6.25;;;;;20.04;75.81;101485.81;5034727;28;8850;-66
2023/06/21 06:34:49;;;;;;;;;7.25;7.25;;;;;20.07;75.88;101487.25;5034823;28;8822;-66
2023/06/21 06:37:15;;;;;;;;;7.50;7.50;;;;;20.07;76.14;101490.81;5028975;28;8830;-66
2023/06/21 06:39:47;;;;;;;;;7.25;7.00;;;;;20.06;75.96;101500.09;5030065;28;8953;-67
2023/06/21 06:42:13;;;;;;;;;4.00;4.00;;;;;20.09;75.74;101496.03;5051171;28;8995;-66
2023/06/21 06:44:40;;;;;;;;;3.50;3.00;;;;;20.07;76.04;101496.28;5069663;28;8824;-67
2023/06/21 06:47:06;;;;;;;;;4.00;4.00;;;;;20.09;75.92;101491.41;5069667;28;8824;-67
2023/06/21 06:49:33;;;;;;;;;5.25;5.00;;;;;20.15;75.82;101503.28;5069556;28;8853;-68
2023/06/21 06:51:59;;;;;;;;;6.50;4.00;;;;;20.16;75.63;101502.19;5047717;28;8839;-67
2023/06/21 06:54:26;;;;;;;;;7.00;4.00;;;;;20.20;75.82;101512.41;5045619;28;8903;-67
2023/06/21 06:56:52;;;;;;;;;6.75;4.25;;;;;20.24;75.74;101505.38;5029502;28;9552;-67
2023/06/21 06:59:19;;;;;;;;;3.75;3.75;;;;;20.26;75.78;101507.88;5030456;28;8903;-68
2023/06/21 07:01:45;;;;;;;;;6.50;3.50;;;;;20.30;75.79;101519.19;5045315;28;8836;-65
2023/06/21 07:04:12;;;;;;;;;7.25;6.25;;;;;20.26;75.44;101513.34;5047892;28;8878;-67
2023/06/21 07:06:40;;;;;;;;;7.25;6.50;;;;;20.24;75.26;101520.97;5049574;28;8838;-67
2023/06/21 07:09:06;;;;;;;;;4.50;3.50;;;;;20.25;75.13;101528.06;5048944;28;8831;-67
2023/06/21 07:11:33;;;;;;;;;6.25;5.75;;;;;20.28;75.28;101529.50;5033435;28;8824;-67
2023/06/21 07:14:00;;;;;;;;;6.50;6.00;;;;;20.30;75.06;101533.69;5036650;28;9655;-64
2023/06/21 07:16:30;;;;;;;;;5.00;5.00;;;;;20.32;75.06;101536.16;5068917;28;8832;-66
2023/06/21 07:18:56;;;;;;;;;8.25;8.00;;;;;20.31;74.93;101527.13;5047757;28;9537;-69
2023/06/21 07:21:25;;;;;;;;;8.75;7.00;;;;;20.30;74.66;101535.59;5031312;28;8857;-67
2023/06/21 07:23:51;;;;;;;;;5.50;5.50;;;;;20.38;74.60;101527.00;5034683;28;8870;-66
2023/06/21 07:26:18;;;;;;;;;5.75;3.75;;;;;20.47;74.59;101540.03;5041695;28;8830;-67
2023/06/21 07:28:44;;;;;;;;;7.00;5.25;;;;;20.53;74.16;101538.25;5035173;28;9157;-68
2023/06/21 07:31:11;;;;;;;;;6.25;4.50;;;;;20.59;74.22;101542.75;5052437;28;8831;-67
2023/06/21 07:33:37;;;;;;;;;3.75;3.00;;;;;20.66;74.15;101551.66;5050351;28;8861;-67
2023/06/21 07:36:05;;;;;;;;;5.00;5.00;;;;;20.65;73.98;101555.44;5047642;28;8830;-67
2023/06/21 07:38:32;;;;;;;;;3.75;3.75;;;;;20.64;73.51;101556.53;5037005;28;9651;-68
2023/06/21 07:40:58;;;;;;;;;6.50;4.00;;;;;20.67;73.25;101552.47;5038257;28;8911;-68
2023/06/21 07:43:25;;;;;;;;;3.75;3.50;;;;;20.67;73.14;101555.22;5035594;28;8867;-68
2023/06/21 07:45:51;;;;;;;;;3.00;3.00;;;;;20.74;73.01;101554.00;5051393;28;8859;-67
2023/06/21 07:48:38;;;;;;;;;4.75;4.75;;;;;20.80;72.60;101557.66;5056293;28;8853;-67
2023/06/21 07:51:05;;;;;;;;;3.00;3.00;;;;;20.71;72.43;101559.97;5073072;28;8836;-67
2023/06/21 07:53:32;;;;;;;;;8.50;6.75;;;;;20.62;71.90;101555.97;5052299;28;8843;-67
2023/06/21 07:56:01;;;;;;;;;3.50;3.50;;;;;20.70;71.91;101557.44;5052600;28;8838;-69
2023/06/21 07:58:28;;;;;;;;;2.00;2.00;;;;;20.78;72.04;101562.53;5051796;28;8872;-67
2023/06/21 08:00:55;;;;;;;;;2.00;2.00;;;;;20.81;72.28;101556.56;5051703;28;8989;-68
2023/06/21 08:03:21;;;;;;;;;3.50;3.50;;;;;20.84;72.14;101555.25;5051749;28;8852;-67
2023/06/21 08:05:48;;;;;;;;;3.00;2.00;;;;;20.88;72.12;101562.72;5046672;28;9004;-67
2023/06/21 08:08:17;;;;;;;;;4.75;4.25;;;;;20.91;71.82;101561.41;5067272;28;8843;-68
2023/06/21 08:10:44;;;;;;;;;6.00;5.75;;;;;20.90;71.34;101570.69;5068168;28;8827;-67
2023/06/21 08:13:10;;;;;;;;;6.50;6.50;;;;;20.91;71.19;101564.16;5052656;28;8847;-67
2023/06/21 08:15:36;;;;;;;;;2.00;2.00;;;;;20.98;71.14;101553.88;5052420;28;8878;-67
2023/06/21 08:18:03;;;;;;;;;2.00;2.00;;;;;21.05;71.07;101567.41;5052621;28;8847;-68
2023/06/21 08:20:30;;;;;;;;;6.25;5.50;;;;;20.97;71.16;101568.63;5052561;28;8835;-66
2023/06/21 08:22:56;;;;;;;;;4.75;3.50;;;;;20.94;70.41;101561.75;5055955;28;8847;-68
2023/06/21 08:25:23;;;;;;;;;3.75;3.00;;;;;20.97;70.52;101563.16;5070913;28;8863;-67
2023/06/21 08:27:49;;;;;;;;;8.00;8.00;;;;;20.96;70.59;101565.06;5072493;28;8825;-68
2023/06/21 08:30:16;;;;;;;;;5.00;4.00;;;;;20.97;70.46;101574.09;5062776;28;9600;-68
2023/06/21 08:32:42;;;;;;;;;9.50;8.00;;;;;20.95;70.09;101579.00;5052242;28;8936;-66
2023/06/21 08:35:09;;;;;;;;;7.50;6.75;;;;;21.06;70.29;101588.22;5044766;28;8827;-67
2023/06/21 08:37:38;;;;;;;;;5.00;5.00;;;;;21.13;70.27;101575.22;5052146;28;8954;-68
2023/06/21 08:40:05;;;;;;;;;7.25;7.25;;;;;21.20;70.20;101579.47;5052467;28;8859;-67
2023/06/21 08:42:31;;;;;;;;;2.50;2.50;;;;;21.31;69.82;101590.56;5066646;28;8872;-67
2023/06/21 08:44:58;;;;;;;;;3.25;3.25;;;;;21.31;69.80;101594.19;5066414;28;8840;-67
2023/06/21 08:47:28;;;;;;;;;2.75;2.75;;;;;21.32;69.88;101597.75;5055360;28;8872;-66
2023/06/21 08:49:57;;;;;;;;;3.00;3.00;;;;;21.36;69.70;101596.19;5038867;28;8820;-67
2023/06/21 08:52:26;;;;;;;;;3.50;3.25;;;;;21.38;69.48;101594.03;5053830;28;8843;-67
2023/06/21 08:55:00;;;;;;;;;5.75;5.00;;;;;21.38;69.16;101600.34;5063958;28;8848;-67
2023/06/21 08:57:29;;;;;;;;;3.75;3.75;;;;;21.46;69.00;101601.84;5050686;28;8838;-67
2023/06/21 09:00:04;;;;;;;;;4.00;3.00;;;;;21.47;68.56;101598.00;5044681;28;8837;-67
2023/06/21 09:02:40;;;;;;;;;2.75;2.00;;;;;21.52;68.83;101598.13;5053656;28;9562;-68
2023/06/21 09:05:12;;;;;;;;;3.00;2.75;;;;;21.54;68.49;101595.13;5048447;28;9526;-68
2023/06/21 09:07:40;;;;;;;;;3.50;3.00;;;;;21.54;68.14;101595.94;5044139;28;8840;-68
2023/06/21 09:10:08;;;;;;;;;2.25;2.00;;;;;21.57;67.95;101594.63;5061240;28;8838;-67
2023/06/21 09:12:37;;;;;;;;;1.75;1.50;;;;;21.59;67.73;101604.25;5041626;28;8810;-66
2023/06/21 09:15:04;;;;;;;;;5.50;3.50;;;;;21.42;65.76;101608.88;5063637;28;8898;-66
2023/06/21 09:17:32;;;;;;;;;1.75;1.75;;;;;21.49;65.61;101609.56;5053293;28;9565;-67
2023/06/21 09:19:58;;;;;;;;;1.75;1.50;;;;;21.63;66.08;101610.06;5057975;28;8851;-68
2023/06/21 09:22:27;;;;;;;;;2.00;2.00;;;;;21.75;66.00;101607.22;5072153;28;8825;-67
2023/06/21 09:24:53;;;;;;;;;2.00;2.00;;;;;21.82;65.69;101605.97;5059164;28;8838;-68
2023/06/21 09:27:20;;;;;;;;;2.75;2.75;;;;;21.76;64.63;101609.72;5067104;28;8840;-66
2023/06/21 09:29:46;;;;;;;;;1.50;1.50;;;;;21.84;64.54;101613.97;5055814;28;8876;-66
2023/06/21 09:32:13;;;;;;;;;1.25;1.25;;;;;21.83;63.67;101610.38;5065064;28;8869;-67
2023/06/21 09:34:39;;;;;;;;;1.00;1.00;;;;;21.92;63.58;101610.81;5051029;28;8841;-68
2023/06/21 09:37:06;;;;;;;;;1.75;1.00;;;;;21.96;63.72;101606.47;5063311;28;8836;-68
2023/06/21 09:39:32;;;;;;;;;0.25;0.25;;;;;22.01;63.43;101611.19;5054600;28;8847;-67
2023/06/21 09:41:59;;;;;;;;;1.00;1.00;;;;;22.03;62.36;101617.25;5065230;28;8843;-67
2023/06/21 09:44:25;;;;;;;;;1.50;1.50;;;;;22.06;62.21;101609.34;5053128;28;8838;-69
2023/06/21 09:46:58;;;;;;;;;2.00;2.00;;;;;22.06;62.58;101605.78;5049688;28;8882;-68
2023/06/21 09:49:27;;;;;;;;;1.75;1.00;;;;;22.04;62.24;101616.16;5066495;28;8868;-67
2023/06/21 09:51:55;;;;;;;;;0.50;0.50;;;;;22.13;61.79;101607.28;5038068;28;8832;-65
2023/06/21 09:54:22;;;;;;;;;0.00;0.00;;;;;22.19;61.45;101613.66;5062174;28;8859;-67
2023/06/21 09:56:48;;;;;;;;;1.00;1.00;;;;;22.17;61.04;101618.59;5060990;28;8824;-68
2023/06/21 09:59:18;;;;;;;;;1.25;1.25;;;;;22.17;60.37;101613.94;5055345;28;8871;-67
2023/06/21 10:01:49;;;;;;;;;1.00;1.00;;;;;22.21;60.49;101626.06;5049286;28;8822;-66
2023/06/21 10:04:17;;;;;;;;;0.25;0.25;;;;;22.29;60.05;101621.22;5070178;28;8910;-68
2023/06/21 10:06:55;;;;;;;;;2.00;2.00;;;;;22.26;60.01;101629.94;5059619;28;8850;-68
2023/06/21 10:09:22;;;;;;;;;1.00;1.00;;;;;22.38;60.58;101634.25;5066105;28;9873;-68
2023/06/21 10:11:54;;;;;;;;;2.00;2.00;;;;;22.32;59.75;101635.28;5052542;28;8832;-69
2023/06/21 10:14:25;;;;;;;;;2.50;2.50;;;;;22.33;59.87;101633.34;5066599;28;8824;-69
2023/06/21 10:16:55;;;;;;;;;1.50;1.50;;;;;22.35;59.95;101634.75;5058401;28;8882;-70
2023/06/21 10:19:23;;;;;;;;;0.25;0.25;;;;;22.40;59.57;101639.47;5050745;28;8945;-70
2023/06/21 10:21:59;;;;;;;;;2.00;2.00;;;;;22.49;60.03;101639.88;5066384;28;8835;-69
2023/06/21 10:24:29;;;;;;;;;3.25;3.00;;;;;22.43;59.94;101641.69;5058126;28;8833;-68
2023/06/21 10:26:56;;;;;;;;;2.25;2.25;;;;;22.50;60.03;101645.09;5061084;28;8910;-68
2023/06/21 10:29:23;;;;;;;;;2.75;2.00;;;;;22.59;59.72;101649.06;5066095;28;8841;-69
2023/06/21 10:31:55;;;;;;;;;2.25;2.25;;;;;22.66;59.30;101646.94;5051720;28;8935;-68
2023/06/21 10:34:27;;;;;;;;;1.00;1.00;;;;;22.75;58.73;101649.25;5057642;28;8915;-67
2023/06/21 10:37:09;;;;;;;;;1.00;1.00;;;;;22.80;58.46;101652.88;5057358;28;8838;-68
2023/06/21 10:39:35;;;;;;;;;1.50;1.50;;;;;22.83;58.37;101659.78;5062692;28;8839;-67
2023/06/21 10:42:03;;;;;;;;;3.00;2.00;;;;;22.80;57.56;101668.50;5064922;28;8882;-68
2023/06/21 10:44:30;;;;;;;;;2.00;1.00;;;;;22.84;57.35;101665.00;5058340;28;8848;-67
2023/06/21 10:46:59;;;;;;;;;1.25;1.25;;;;;22.86;56.81;101664.75;5056987;28;8831;-67
2023/06/21 10:49:26;;;;;;;;;1.50;1.50;;;;;22.90;56.90;101669.50;5066274;28;8833;-69
2023/06/21 10:51:54;;;;;;;;;1.75;1.75;;;;;22.91;56.60;101662.09;5052078;28;8852;-69
2023/06/21 10:54:22;;;;;;;;;1.00;1.00;;;;;22.84;55.26;101666.91;5060250;28;8854;-68
2023/06/21 10:56:49;;;;;;;;;2.25;2.25;;;;;22.88;55.71;101668.06;5060166;28;8829;-68
2023/06/21 10:59:17;;;;;;;;;1.75;1.75;;;;;23.01;56.52;101664.13;5052961;28;8863;-69
2023/06/21 11:01:44;;;;;;;;;3.00;3.00;;;;;23.04;57.41;101664.44;5067209;28;9578;-69
2023/06/21 11:04:10;;;;;;;;;2.75;2.25;;;;;23.08;58.37;101667.50;5055388;28;8817;-69
2023/06/21 11:06:40;;;;;;;;;2.75;2.75;;;;;23.10;59.11;101674.41;5053333;28;8879;-68
2023/06/21 11:09:10;;;;;;;;;4.75;3.50;;;;;23.13;58.18;101675.78;5059431;28;8855;-69
2023/06/21 11:11:40;;;;;;;;;2.00;2.00;;;;;23.15;58.51;101682.69;5056470;28;8834;-66
2023/06/21 11:14:07;;;;;;;;;3.00;2.50;;;;;23.18;58.75;101686.84;5057238;28;8898;-64
2023/06/21 11:16:36;;;;;;;;;3.50;3.50;;;;;23.22;57.01;101695.41;5043118;28;8851;-68
2023/06/21 11:19:06;;;;;;;;;1.50;1.50;;;;;23.16;55.96;101689.84;5063246;28;8918;-68
2023/06/21 11:21:44;;;;;;;;;2.25;2.25;;;;;23.21;56.20;101694.56;5039376;28;8842;-66
2023/06/21 11:24:15;;;;;;;;;4.00;4.00;;;;;23.24;56.85;101694.06;5057648;28;8837;-69
2023/06/21 11:27:01;;;;;;;;;3.50;2.25;;;;;23.33;57.77;101697.97;5070408;28;8853;-69
2023/06/21 11:29:34;;;;;;;;;5.25;4.75;;;;;23.37;58.24;101710.13;5053518;28;8854;-69
2023/06/21 11:32:10;;;;;;;;;5.25;5.25;;;;;23.37;58.52;101712.03;5052251;28;8828;-69